Latest Coastal Weather Observations for Ulladulla

IDN60701

Issued at 5:21 pm EST Thursday 29 June 2017 (issued every 10 minutes, with the page automatically refreshed every 10 minutes)

About coastal observations | Map of coastal stations | Coastal observations for NSW | Marine services | Other Formats
Station Details ID: 069138 Name: ULLADULLA AWS Lat: -35.36 Lon: 150.48 Height: 35.7 m
Data from the previous 72 hours. | See also: Recent months at Ulladulla
Date/Time
EST
Temp
°C
Wind Pressure Rain since
9am
mm
Weather Cloud Vis
km
Sea
Height
m
Swell
Dir  Spd
kts
Gust
kts
hPa Trend Height
m
Period
s
Dir
29/05:00pm 12.2 CALM 0 0 1018.6 - 0.0 - - - - - - -
29/04:30pm 12.7 CALM 0 2 1018.6 - 0.0 - - - - - - -
29/04:00pm 14.3 NNE 2 3 1018.6 - 0.0 - - - - - - -
29/03:30pm 14.9 ENE 2 4 1018.5 - 0.0 - - - - - - -
29/03:00pm 15.2 E 2 3 1018.4 - 0.0 - - - - - - -
29/02:30pm 15.4 SE 2 4 1018.4 - 0.0 - - - - - - -
29/02:00pm 15.2 SE 3 5 1018.4 - 0.0 - - - - - - -
29/01:30pm 15.2 SE 3 5 1018.5 - 0.0 - - - - - - -
29/01:00pm 15.1 SSE 3 5 1018.8 - 0.0 - - - - - - -
29/12:30pm 15.1 SSE 4 5 1019.1 - 0.0 - - - - - - -
29/12:00pm 15.0 SSE 4 6 1019.7 - 0.0 - - - - - - -
29/11:30am 14.9 S 3 5 1020.1 - 0.0 - - - - - - -
29/11:00am 14.4 WSW 4 6 1020.5 - 0.0 - - - - - - -
29/10:30am 14.7 WSW 4 7 1020.9 - 0.0 - - - - - - -
29/10:00am 14.6 WSW 3 5 1021.2 - 0.0 - - - - - - -
29/09:30am 14.0 W 3 5 1021.6 - 0.0 - - - - - - -
29/09:00am 12.8 WNW 3 5 1021.7 - 0.0 - - - - - - -
29/08:30am 11.7 WNW 2 4 1021.4 - 0.0 - - - - - - -
29/08:00am 10.2 W 3 5 1021.1 - 0.0 - - - - - - -
29/07:30am 8.7 W 4 6 1020.5 - 0.0 - - - - - - -
29/07:00am 8.0 W 3 5 1020.5 - 0.0 - - - - - - -
29/06:30am 8.3 W 4 6 1020.3 - 0.0 - - - - - - -
29/06:00am 8.9 WNW 4 5 1020.5 - 0.0 - - - - - - -
29/05:30am 8.6 W 3 5 1020.2 - 0.0 - - - - - - -
29/05:00am 8.8 W 3 4 1020.2 - 0.0 - - - - - - -
29/04:30am 8.9 W 3 5 1020.3 - 0.0 - - - - - - -
29/04:00am 9.1 W 5 7 1020.1 - 0.0 - - - - - - -
29/03:30am 9.0 W 4 6 1020.6 - 0.0 - - - - - - -
29/03:00am 9.3 W 3 5 1021.1 - 0.0 - - - - - - -
29/02:30am 9.2 W 4 5 1021.1 - 0.0 - - - - - - -
29/02:00am 9.2 W 3 5 1021.0 - 0.0 - - - - - - -
29/01:30am 9.4 W 3 5 1021.1 - 0.0 - - - - - - -
29/01:00am 9.7 W 3 5 1021.3 - 0.0 - - - - - - -
29/12:30am 9.4 W 3 5 1021.5 - 0.0 - - - - - - -
29/12:00am 9.7 W 4 5 1021.8 - 0.0 - - - - - - -
 
Date/Time
EST
Temp
°C
Wind Pressure Rain since
9am
mm
Weather Cloud Vis
km
Sea
Height
m
Swell
Dir  Spd
kts
Gust
kts
hPa Trend Height
m
Period
s
Dir
28/11:30pm 10.0 W 5 7 1022.1 - 0.0 - - - - - - -
28/11:00pm 10.6 W 4 7 1022.1 - 0.0 - - - - - - -
28/10:30pm 10.8 W 3 5 1022.1 - 0.0 - - - - - - -
28/10:00pm 11.1 WNW 3 6 1022.1 - 0.0 - - - - - - -
28/09:30pm 11.1 W 3 5 1022.0 - 0.0 - - - - - - -
28/09:00pm 10.9 W 4 6 1021.8 - 0.0 - - - - - - -
28/08:30pm 10.7 W 4 7 1021.7 - 0.0 - - - - - - -
28/08:00pm 10.7 W 5 7 1021.7 - 0.0 - - - - - - -
28/07:30pm 10.6 W 5 7 1021.6 - 0.0 - - - - - - -
28/07:00pm 10.5 W 4 6 1021.4 - 0.0 - - - - - - -
28/06:30pm 10.2 WSW 3 4 1021.1 - 0.0 - - - - - - -
28/06:00pm 10.8 SW 3 4 1021.0 - 0.0 - - - - - - -
28/05:30pm 11.5 SW 4 5 1020.9 - 0.0 - - - - - - -
28/05:00pm 11.6 W 2 3 1020.6 - 0.0 - - - - - - -
28/04:30pm 13.0 WNW 1 3 1020.6 - 0.0 - - - - - - -
28/04:00pm 13.2 W 1 2 1020.5 - 0.0 - - - - - - -
28/03:30pm 13.5 CALM 0 1 1020.5 - 0.0 - - - - - - -
28/03:00pm 13.7 W 1 2 1020.4 - 0.0 - - - - - - -
28/02:30pm 14.1 WSW 2 4 1020.0 - 0.0 - - - - - - -
28/02:00pm 14.3 CALM 0 2 1020.0 - 0.0 - - - - - - -
28/01:30pm 14.3 WNW 1 3 1020.0 - 0.0 - - - - - - -
28/01:00pm 14.4 WNW 2 6 1020.3 - 0.0 - - - - - - -
28/12:30pm 14.6 CALM 0 3 1020.8 - 0.0 - - - - - - -
28/12:00pm 14.4 WSW 3 5 1021.4 - 0.0 - - - - - - -
28/11:30am 14.4 CALM 0 3 1021.9 - 0.0 - - - - - - -
28/11:00am 14.5 SSE 2 4 1022.3 - 0.0 - - - - - - -
28/10:30am 14.9 S 1 3 1022.4 - 0.0 - - - - - - -
28/10:00am 15.6 CALM 0 0 1022.4 - 0.0 - - - - - - -
28/09:30am 13.9 CALM 0 1 1022.4 - 0.0 - - - - - - -
28/09:00am 12.4 CALM 0 0 1022.7 - 0.0 - - - - - - -
28/08:30am 11.0 CALM 0 1 1022.7 - 0.0 - - - - - - -
28/08:00am 10.6 CALM 0 0 1022.6 - 0.0 - - - - - - -
28/07:30am 10.4 NW 3 3 1022.6 - 0.0 - - - - - - -
28/07:00am 10.4 NW 2 3 1022.2 - 0.0 - - - - - - -
28/06:30am 10.5 NW 2 2 1022.2 - 0.0 - - - - - - -
28/06:00am 10.7 CALM 0 0 1021.9 - 0.0 - - - - - - -
28/05:30am 10.7 CALM 0 0 1021.9 - 0.0 - - - - - - -
28/05:00am 11.0 CALM 0 0 1022.2 - 0.0 - - - - - - -
28/04:30am 10.8 WNW 1 1 1022.3 - 0.0 - - - - - - -
28/04:00am 11.3 CALM 0 0 1022.3 - 0.0 - - - - - - -
28/03:30am 11.2 CALM 0 1 1022.5 - 0.0 - - - - - - -
28/03:00am 11.1 W 3 4 1022.6 - 0.0 - - - - - - -
28/02:30am 11.2 W 3 5 1022.9 - 0.0 - - - - - - -
28/02:00am 11.4 WNW 2 3 1022.9 - 0.0 - - - - - - -
28/01:30am 11.4 CALM 0 0 1022.8 - 0.0 - - - - - - -
28/01:00am 11.5 CALM 0 0 1022.9 - 0.0 - - - - - - -
28/12:30am 11.5 WNW 1 2 1023.1 - 0.0 - - - - - - -
28/12:00am 11.9 WNW 3 3 1023.8 - 0.0 - - - - - - -
 
Date/Time
EST
Temp
°C
Wind Pressure Rain since
9am
mm
Weather Cloud Vis
km
Sea
Height
m
Swell
Dir  Spd
kts
Gust
kts
hPa Trend Height
m
Period
s
Dir
27/11:30pm 11.8 WNW 2 3 1024.1 - 0.0 - - - - - - -
27/11:00pm 11.6 W 3 4 1024.3 - 0.0 - - - - - - -
27/10:30pm 11.4 W 3 3 1024.2 - 0.0 - - - - - - -
27/10:00pm 11.6 W 1 2 1024.1 - 0.0 - - - - - - -
27/09:30pm 11.5 WNW 1 2 1024.2 - 0.0 - - - - - - -
27/09:00pm 11.6 W 1 2 1024.3 - 0.0 - - - - - - -
27/08:30pm 11.8 CALM 0 2 1024.4 - 0.0 - - - - - - -
27/08:00pm 12.4 NW 3 3 1024.8 - 0.0 - - - - - - -
27/07:30pm 12.3 WNW 3 4 1024.7 - 0.0 - - - - - - -
27/07:00pm 12.4 WNW 3 4 1024.6 - 0.0 - - - - - - -
27/06:30pm 12.4 WNW 2 3 1024.6 - 0.0 - - - - - - -
27/06:00pm 13.1 NW 1 3 1024.3 - 0.0 - - - - - - -
27/05:30pm 13.5 NNE 2 3 1024.3 - 0.0 - - - - - - -
27/05:00pm 13.6 NE 2 5 1024.1 - 0.0 - - - - - - -
27/04:30pm 13.5 ENE 1 4 1024.1 - 0.0 - - - - - - -
27/04:00pm 13.8 ENE 2 5 1024.3 - 0.0 - - - - - - -
27/03:30pm 14.3 ENE 3 5 1024.3 - 0.0 - - - - - - -
27/03:00pm 14.1 E 1 3 1024.4 - 0.0 - - - - - - -
27/02:30pm 14.2 ESE 1 3 1024.6 - 0.0 - - - - - - -
27/02:00pm 14.1 SE 2 4 1024.8 - 0.0 - - - - - - -
27/01:30pm 14.4 S 3 5 1025.1 - 0.0 - - - - - - -
27/01:00pm 14.4 S 5 6 1025.3 - 0.0 - - - - - - -
27/12:30pm 14.1 S 4 6 1025.7 - 0.0 - - - - - - -
27/12:00pm 14.2 S 5 7 1025.9 - 0.0 - - - - - - -
27/11:30am 14.5 S 3 6 1026.6 - 0.0 - - - - - - -
27/11:00am 14.1 SW 4 6 1027.0 - 0.0 - - - - - - -
27/10:30am 13.6 SSW 4 7 1027.2 - 0.0 - - - - - - -
27/10:00am 13.5 SW 5 7 1027.2 - 0.0 - - - - - - -
27/09:30am 13.1 SW 5 7 1027.2 - 0.0 - - - - - - -
27/09:00am 12.3 SW 4 6 1026.9 - 0.0 - - - - - - -
27/08:30am 11.1 WSW 3 5 1026.9 - 0.0 - - - - - - -
27/08:00am 9.7 WSW 4 5 1026.9 - 0.0 - - - - - - -
27/07:30am 8.1 WSW 4 5 1026.7 - 0.0 - - - - - - -
27/07:00am 7.9 WSW 5 6 1026.4 - 0.0 - - - - - - -
27/06:30am 8.0 WSW 5 6 1026.4 - 0.0 - - - - - - -
27/06:00am 8.2 WSW 5 6 1026.3 - 0.0 - - - - - - -
27/05:30am 8.4 WSW 4 6 1026.0 - 0.0 - - - - - - -
27/05:00am 9.0 WSW 4 5 1025.7 - 0.0 - - - - - - -
27/04:30am 9.7 WSW 5 7 1025.7 - 0.0 - - - - - - -
27/04:00am 9.5 WSW 5 7 1025.6 - 0.0 - - - - - - -
27/03:30am 9.6 WSW 5 6 1025.6 - 0.0 - - - - - - -
27/03:00am 9.7 WSW 5 7 1025.7 - 0.0 - - - - - - -
27/02:30am 10.0 W 5 7 1025.8 - 0.0 - - - - - - -
27/02:00am 10.3 W 4 5 1025.5 - 0.0 - - - - - - -
27/01:30am 10.7 WSW 3 4 1025.5 - 0.0 - - - - - - -
27/01:00am 10.9 SW 3 5 1025.5 - 0.0 - - - - - - -
27/12:30am 10.9 SW 4 6 1025.4 - 0.0 - - - - - - -
27/12:00am 11.2 SW 5 7 1025.5 - 0.0 - - - - - - -
 
Date/Time
EST
Temp
°C
Wind Pressure Rain since
9am
mm
Weather Cloud Vis
km
Sea
Height
m
Swell
Dir  Spd
kts
Gust
kts
hPa Trend Height
m
Period
s
Dir
26/11:30pm 10.8 WSW 4 7 1025.8 - 0.0 - - - - - - -
26/11:00pm 10.6 W 4 5 1025.8 - 0.0 - - - - - - -
26/10:30pm 11.5 W 4 4 1025.6 - 0.0 - - - - - - -
26/10:00pm 11.6 W 4 5 1025.4 - 0.0 - - - - - - -
26/09:30pm 11.5 W 4 5 1025.2 - 0.0 - - - - - - -
26/09:00pm 11.4 W 3 4 1025.1 - 0.0 - - - - - - -
26/08:30pm 11.1 W 4 5 1025.0 - 0.0 - - - - - - -
26/08:00pm 10.9 W 3 5 1024.9 - 0.0 - - - - - - -
26/07:30pm 10.7 W 2 4 1024.4 - 0.0 - - - - - - -
26/07:00pm 10.9 WNW 1 2 1023.9 - 0.0 - - - - - - -
26/06:30pm 11.5 NNE 1 2 1023.5 - 0.0 - - - - - - -
26/06:00pm 13.0 E 2 3 1023.0 - 0.0 - - - - - - -
26/05:30pm 13.2 ESE 2 4 1022.7 - 0.0 - - - - - - -

Other Formats:

Comma delimited format used in spreadsheet applications
http://www.bom.gov.au/fwo/IDN60701/IDN60701.94938.axf

JavaScript Object Notation format (JSON) in row-major order
http://www.bom.gov.au/fwo/IDN60701/IDN60701.94938.json